Time;durP1;ratioP1;P1;durP2;ratioP2;P2;SDS_P1;SDS_P2;PMS_P1;PMS_P2;Temp;Humidity;BMP_temperature;BMP_pressure;BME280_temperature;BME280_humidity;BME280_pressure;Samples;Min_cycle;Max_cycle;Signal;HPM_P1;HPM_P2
2024/01/17 00:00:42;;;;;;;34.30;15.70;;;-4.10;99.90;;;;;;4983510;28;21004;-59
2024/01/17 00:03:08;;;;;;;30.57;13.40;;;-4.10;99.90;;;;;;4989371;28;20415;-58
2024/01/17 00:05:34;;;;;;;28.90;14.93;;;-4.10;99.90;;;;;;4982806;28;20204;-59
2024/01/17 00:08:00;;;;;;;33.13;14.10;;;-4.10;99.90;;;;;;4981616;28;20615;-59
2024/01/17 00:10:26;;;;;;;30.20;13.27;;;-4.10;99.90;;;;;;4980787;28;20988;-59
2024/01/17 00:12:52;;;;;;;42.77;15.43;;;-4.10;99.90;;;;;;4986774;28;20432;-59
2024/01/17 00:15:20;;;;;;;34.30;15.17;;;-4.10;99.90;;;;;;4986502;28;20188;-58
2024/01/17 00:17:49;;;;;;;42.00;15.70;;;-4.10;99.90;;;;;;4987037;28;20774;-58
2024/01/17 00:20:15;;;;;;;37.40;16.70;;;-4.10;99.90;;;;;;4986561;28;20541;-58
2024/01/17 00:22:41;;;;;;;29.03;15.00;;;-4.00;99.90;;;;;;4979237;28;20979;-58
2024/01/17 00:25:08;;;;;;;36.00;15.87;;;-4.00;99.90;;;;;;4987362;28;20733;-60
2024/01/17 00:27:35;;;;;;;38.97;16.00;;;-4.00;99.90;;;;;;4985068;28;20191;-60
2024/01/17 00:30:02;;;;;;;32.43;16.30;;;-4.00;99.90;;;;;;4989554;28;20944;-58
2024/01/17 00:32:27;;;;;;;40.67;17.40;;;-3.90;99.90;;;;;;4983039;28;20457;-59
2024/01/17 00:34:53;;;;;;;36.27;17.20;;;-3.90;99.90;;;;;;4984631;28;20469;-59
2024/01/17 00:37:19;;;;;;;36.70;17.27;;;-3.90;99.90;;;;;;4987790;28;20185;-58
2024/01/17 00:39:44;;;;;;;39.40;17.57;;;-3.90;99.90;;;;;;4988884;28;20203;-60
2024/01/17 00:42:10;;;;;;;36.47;17.40;;;-3.80;99.90;;;;;;4987489;28;20625;-58
2024/01/17 00:44:38;;;;;;;36.60;16.47;;;-3.80;99.90;;;;;;4987430;28;20190;-59
2024/01/17 00:47:04;;;;;;;33.53;15.50;;;-3.80;99.90;;;;;;4987959;28;20733;-57
2024/01/17 00:49:30;;;;;;;35.57;17.10;;;-3.70;99.90;;;;;;4985828;28;21066;-59
2024/01/17 00:51:56;;;;;;;34.70;17.70;;;-3.70;99.90;;;;;;4980464;28;20513;-59
2024/01/17 00:54:21;;;;;;;38.53;16.80;;;-3.70;99.90;;;;;;4984028;28;20259;-59
2024/01/17 00:56:47;;;;;;;33.77;17.90;;;-3.70;99.90;;;;;;4985980;28;20213;-58
2024/01/17 00:59:13;;;;;;;35.20;17.30;;;-3.60;99.90;;;;;;4985937;28;20204;-58
2024/01/17 01:01:38;;;;;;;34.53;17.67;;;-3.60;99.90;;;;;;4988645;28;20186;-60
2024/01/17 01:04:04;;;;;;;40.13;18.63;;;-3.60;99.90;;;;;;4990499;28;20184;-59
2024/01/17 01:06:29;;;;;;;40.40;18.47;;;-3.60;99.90;;;;;;4985876;28;20195;-60
2024/01/17 01:08:55;;;;;;;31.83;15.43;;;-3.50;99.90;;;;;;4993435;28;20277;-59
2024/01/17 01:11:20;;;;;;;43.50;19.40;;;-3.50;99.90;;;;;;4987247;28;20749;-59
2024/01/17 01:13:46;;;;;;;38.27;19.30;;;-3.50;99.90;;;;;;4982996;28;20190;-58
2024/01/17 01:16:12;;;;;;;44.27;18.77;;;-3.40;99.90;;;;;;4987380;28;20194;-58
2024/01/17 01:18:37;;;;;;;41.90;18.77;;;-3.40;99.90;;;;;;4983739;28;20289;-59
2024/01/17 01:21:03;;;;;;;37.17;18.27;;;-3.40;99.90;;;;;;4987818;28;20178;-59
2024/01/17 01:23:29;;;;;;;38.63;18.80;;;-3.30;99.90;;;;;;4984091;28;20175;-60
2024/01/17 01:25:55;;;;;;;38.57;20.30;;;-3.30;99.90;;;;;;4983231;28;20210;-60
2024/01/17 01:28:20;;;;;;;43.63;20.10;;;-3.30;99.90;;;;;;4984501;28;20582;-60
2024/01/17 01:30:46;;;;;;;39.23;18.30;;;-3.30;99.90;;;;;;4985880;28;20210;-60
2024/01/17 01:33:11;;;;;;;37.30;19.40;;;-3.30;99.90;;;;;;4985083;28;20181;-59
2024/01/17 01:35:37;;;;;;;50.13;18.03;;;-3.30;99.90;;;;;;4987898;28;20591;-60
2024/01/17 01:38:03;;;;;;;47.97;20.43;;;-3.20;99.90;;;;;;4986706;28;20210;-59
2024/01/17 01:40:28;;;;;;;48.77;19.37;;;-3.20;99.90;;;;;;4986191;28;20743;-60
2024/01/17 01:42:58;;;;;;;44.93;21.50;;;-3.10;99.90;;;;;;4983797;28;20185;-59
2024/01/17 01:45:24;;;;;;;53.53;20.20;;;-3.10;99.90;;;;;;4984342;28;20180;-58
2024/01/17 01:47:50;;;;;;;46.93;21.70;;;-3.10;99.90;;;;;;4987528;28;20460;-59
2024/01/17 01:50:16;;;;;;;45.83;20.23;;;-3.00;99.90;;;;;;4988294;28;20420;-59
2024/01/17 01:52:45;;;;;;;38.60;20.07;;;-3.00;99.90;;;;;;4989016;28;20496;-58
2024/01/17 01:55:12;;;;;;;40.80;19.93;;;-3.00;99.90;;;;;;4989404;28;20820;-59
2024/01/17 01:57:40;;;;;;;43.80;20.10;;;-3.00;99.90;;;;;;4987585;28;20433;-59
2024/01/17 02:00:07;;;;;;;38.10;19.03;;;-2.90;99.90;;;;;;4987055;28;20449;-59
2024/01/17 02:02:33;;;;;;;36.30;17.63;;;-2.90;99.90;;;;;;4987018;28;20442;-59
2024/01/17 02:05:01;;;;;;;39.23;20.00;;;-2.90;99.90;;;;;;4988680;28;20429;-59
2024/01/17 02:07:29;;;;;;;38.50;19.43;;;-2.90;99.90;;;;;;4989160;28;20505;-59
2024/01/17 02:09:55;;;;;;;39.23;19.90;;;-2.90;99.90;;;;;;4986352;28;20485;-60
2024/01/17 02:12:21;;;;;;;43.40;19.73;;;-2.90;99.90;;;;;;4985904;28;20880;-59
2024/01/17 02:14:46;;;;;;;47.50;19.53;;;-2.90;99.90;;;;;;4987879;28;20234;-59
2024/01/17 02:17:13;;;;;;;42.73;19.70;;;-2.90;99.90;;;;;;4989552;28;20438;-57
2024/01/17 02:19:41;;;;;;;36.70;18.93;;;-2.90;99.90;;;;;;4991278;28;20677;-59
2024/01/17 02:22:06;;;;;;;44.60;19.90;;;-2.90;99.90;;;;;;4990819;28;20472;-59
2024/01/17 02:24:32;;;;;;;45.50;20.30;;;-2.80;99.90;;;;;;4987631;28;20429;-58
2024/01/17 02:26:59;;;;;;;39.87;20.13;;;-2.80;99.90;;;;;;4985006;28;20698;-59
2024/01/17 02:29:26;;;;;;;44.10;19.27;;;-2.80;99.90;;;;;;4991130;28;20499;-59
2024/01/17 02:31:52;;;;;;;36.53;19.07;;;-2.80;99.90;;;;;;4986308;28;20445;-59
2024/01/17 02:34:18;;;;;;;40.63;19.60;;;-2.80;99.90;;;;;;4986305;28;20520;-59
2024/01/17 02:36:43;;;;;;;36.80;20.57;;;-2.70;99.90;;;;;;4987321;28;20534;-59
2024/01/17 02:39:10;;;;;;;39.17;20.57;;;-2.70;99.90;;;;;;4991036;28;20289;-59
2024/01/17 02:41:36;;;;;;;39.93;20.80;;;-2.70;99.90;;;;;;4985847;28;20183;-60
2024/01/17 02:44:01;;;;;;;39.37;18.80;;;-2.60;99.90;;;;;;4985129;28;20508;-59
2024/01/17 02:46:28;;;;;;;44.63;21.90;;;-2.60;99.90;;;;;;4988098;28;20691;-59
2024/01/17 02:48:53;;;;;;;41.03;18.90;;;-2.60;99.90;;;;;;4983485;28;20203;-59
2024/01/17 02:51:19;;;;;;;40.43;20.47;;;-2.50;99.90;;;;;;4986926;28;21221;-59
2024/01/17 02:53:45;;;;;;;37.60;20.70;;;-2.50;99.90;;;;;;4988767;28;20175;-59
2024/01/17 02:56:10;;;;;;;51.27;20.57;;;-2.50;99.90;;;;;;4989397;28;20179;-59
2024/01/17 02:58:36;;;;;;;36.87;19.70;;;-2.50;99.90;;;;;;4989532;28;20207;-59
2024/01/17 03:01:02;;;;;;;41.87;19.50;;;-2.40;99.90;;;;;;4989460;28;20296;-59
2024/01/17 03:03:27;;;;;;;36.67;19.40;;;-2.40;99.90;;;;;;4982304;28;20224;-60
2024/01/17 03:05:53;;;;;;;49.00;20.00;;;-2.40;99.90;;;;;;4983036;28;20179;-59
2024/01/17 03:08:18;;;;;;;45.90;21.57;;;-2.40;99.90;;;;;;4989037;28;20256;-59
2024/01/17 03:10:44;;;;;;;45.33;21.40;;;-2.40;99.90;;;;;;4989109;28;20256;-59
2024/01/17 03:13:12;;;;;;;41.67;19.60;;;-2.40;99.90;;;;;;4989439;28;20185;-59
2024/01/17 03:15:39;;;;;;;41.97;19.97;;;-2.40;99.90;;;;;;4987658;28;20237;-60
2024/01/17 03:18:08;;;;;;;39.40;20.10;;;-2.40;99.90;;;;;;4984662;28;20491;-59
2024/01/17 03:20:34;;;;;;;43.03;20.37;;;-2.30;99.90;;;;;;4987791;28;20426;-59
2024/01/17 03:22:59;;;;;;;42.30;20.20;;;-2.30;99.90;;;;;;4985728;28;20428;-59
2024/01/17 03:25:25;;;;;;;44.50;21.70;;;-2.30;99.90;;;;;;4989827;28;20187;-59
2024/01/17 03:27:51;;;;;;;46.20;21.40;;;-2.30;99.90;;;;;;4987344;28;20210;-60
2024/01/17 03:30:16;;;;;;;43.67;21.40;;;-2.30;99.90;;;;;;4989117;28;20187;-57
2024/01/17 03:32:42;;;;;;;48.07;20.93;;;-2.20;99.90;;;;;;4990342;28;20182;-59
2024/01/17 03:35:08;;;;;;;41.47;22.03;;;-2.20;99.90;;;;;;4983128;28;20241;-59
2024/01/17 03:37:34;;;;;;;48.27;22.23;;;-2.20;99.90;;;;;;4988022;28;20180;-58
2024/01/17 03:39:59;;;;;;;38.17;20.37;;;-2.10;99.90;;;;;;4987995;28;20455;-60
2024/01/17 03:42:25;;;;;;;39.67;20.57;;;-2.10;99.90;;;;;;4988124;28;20214;-59
2024/01/17 03:44:50;;;;;;;46.70;20.77;;;-2.10;99.90;;;;;;4989294;28;20212;-59
2024/01/17 03:47:16;;;;;;;39.73;20.37;;;-2.10;99.90;;;;;;4982805;28;20926;-58
2024/01/17 03:49:42;;;;;;;40.90;20.00;;;-2.00;99.90;;;;;;4988586;28;20210;-59
2024/01/17 03:52:07;;;;;;;46.73;21.23;;;-2.00;99.90;;;;;;4988149;28;20206;-58
2024/01/17 03:54:35;;;;;;;41.33;20.80;;;-2.00;99.90;;;;;;4985957;28;20593;-59
2024/01/17 03:57:01;;;;;;;49.73;21.50;;;-2.00;99.90;;;;;;4986146;28;20188;-59
2024/01/17 03:59:27;;;;;;;42.33;20.80;;;-2.00;99.90;;;;;;4985919;28;20446;-59
2024/01/17 04:01:53;;;;;;;40.23;20.70;;;-2.00;99.90;;;;;;4985456;28;20199;-60
2024/01/17 04:04:19;;;;;;;40.87;20.30;;;-1.90;99.90;;;;;;4982596;28;20507;-59
2024/01/17 04:06:44;;;;;;;45.60;22.83;;;-1.90;99.90;;;;;;4987202;28;20214;-59
2024/01/17 04:09:10;;;;;;;42.37;20.80;;;-1.90;99.90;;;;;;4989744;28;20198;-59
2024/01/17 04:11:36;;;;;;;42.90;20.17;;;-1.90;99.90;;;;;;4986613;28;20262;-60
2024/01/17 04:14:02;;;;;;;46.87;22.27;;;-1.90;99.90;;;;;;4987094;28;20554;-59
2024/01/17 04:16:27;;;;;;;42.40;22.40;;;-1.80;99.90;;;;;;4988301;28;20430;-60
2024/01/17 04:18:53;;;;;;;43.93;20.27;;;-1.80;99.90;;;;;;4987921;28;20207;-59
2024/01/17 04:21:20;;;;;;;40.97;21.23;;;-1.80;99.90;;;;;;4987444;28;20186;-59
2024/01/17 04:23:48;;;;;;;43.57;22.33;;;-1.80;99.90;;;;;;4987198;28;20360;-59
2024/01/17 04:26:23;;;;;;;48.57;21.40;;;-1.80;99.90;;;;;;4988101;28;20472;-60
2024/01/17 04:28:49;;;;;;;46.13;21.87;;;-1.80;99.90;;;;;;4986302;28;21006;-59
2024/01/17 04:31:29;;;;;;;41.50;22.93;;;-1.70;99.90;;;;;;4985452;28;20922;-60
2024/01/17 04:33:56;;;;;;;47.10;23.00;;;-1.70;99.90;;;;;;4988485;28;21234;-60
2024/01/17 04:36:24;;;;;;;39.30;19.80;;;-1.70;99.90;;;;;;4987140;28;20414;-60
2024/01/17 04:38:49;;;;;;;44.93;21.50;;;-1.70;99.90;;;;;;4988527;28;20442;-60
2024/01/17 04:41:16;;;;;;;42.17;22.07;;;-1.70;99.90;;;;;;4984737;28;20468;-60
2024/01/17 04:43:44;;;;;;;46.37;22.20;;;-1.70;99.90;;;;;;4986306;28;20255;-61
2024/01/17 04:46:14;;;;;;;44.63;21.97;;;-1.60;99.90;;;;;;4985324;28;20478;-60
2024/01/17 04:48:44;;;;;;;46.43;22.40;;;-1.60;99.90;;;;;;4985986;28;20962;-59
2024/01/17 04:51:11;;;;;;;39.00;23.07;;;-1.60;99.90;;;;;;4983792;28;20969;-59
2024/01/17 04:53:37;;;;;;;40.27;21.30;;;-1.60;99.90;;;;;;4987387;28;20413;-60
2024/01/17 04:56:05;;;;;;;48.27;21.50;;;-1.60;99.90;;;;;;4974144;28;20478;-57
2024/01/17 04:58:35;;;;;;;47.50;22.53;;;-1.60;99.90;;;;;;4982348;28;20460;-60
2024/01/17 05:01:01;;;;;;;42.83;21.60;;;-1.60;99.90;;;;;;4979448;28;20446;-61
2024/01/17 05:03:27;;;;;;;48.70;23.40;;;-1.50;99.90;;;;;;4981598;28;20452;-60
2024/01/17 05:05:53;;;;;;;44.00;21.10;;;-1.50;99.90;;;;;;4986192;28;20272;-58
2024/01/17 05:08:19;;;;;;;52.87;23.00;;;-1.50;99.90;;;;;;4980062;28;20468;-57
2024/01/17 05:10:45;;;;;;;46.60;22.40;;;-1.40;99.90;;;;;;4986103;28;20437;-60
2024/01/17 05:13:12;;;;;;;42.67;21.33;;;-1.40;99.90;;;;;;4985977;28;20182;-60
2024/01/17 05:15:38;;;;;;;50.17;23.10;;;-1.40;99.90;;;;;;4985531;28;20569;-60
2024/01/17 05:18:07;;;;;;;42.60;21.47;;;-1.40;99.90;;;;;;4982898;28;20459;-60
2024/01/17 05:20:33;;;;;;;43.37;20.87;;;-1.30;99.90;;;;;;4977900;28;20430;-59
2024/01/17 05:22:59;;;;;;;43.80;22.53;;;-1.30;99.90;;;;;;4981964;28;20909;-61
2024/01/17 05:25:26;;;;;;;39.53;21.17;;;-1.30;99.90;;;;;;4977646;28;20436;-59
2024/01/17 05:27:54;;;;;;;41.83;21.47;;;-1.30;99.90;;;;;;4985317;28;20991;-58
2024/01/17 05:30:20;;;;;;;45.60;21.87;;;-1.20;99.90;;;;;;4982982;28;20441;-60
2024/01/17 05:32:46;;;;;;;44.80;22.37;;;-1.20;99.90;;;;;;4973832;28;20970;-58
2024/01/17 05:35:14;;;;;;;47.13;24.23;;;-1.20;99.90;;;;;;4981108;28;20433;-58
2024/01/17 05:37:43;;;;;;;45.17;22.97;;;-1.10;99.90;;;;;;4985022;28;20430;-60
2024/01/17 05:40:10;;;;;;;45.40;23.83;;;-1.10;99.90;;;;;;4981265;28;20438;-59
2024/01/17 05:42:39;;;;;;;46.23;21.53;;;-1.10;99.90;;;;;;4979995;28;20516;-60
2024/01/17 05:45:07;;;;;;;45.93;22.40;;;-1.00;99.90;;;;;;4979711;28;20952;-60
2024/01/17 05:47:35;;;;;;;43.97;24.07;;;-1.00;99.90;;;;;;4983013;28;20461;-57
2024/01/17 05:50:02;;;;;;;51.80;22.90;;;-1.00;99.90;;;;;;4981830;28;20434;-59
2024/01/17 05:52:27;;;;;;;50.10;22.70;;;-0.90;99.90;;;;;;4980395;28;20465;-56
2024/01/17 05:54:53;;;;;;;43.53;22.70;;;-0.90;99.90;;;;;;4982805;28;20442;-59
2024/01/17 05:57:18;;;;;;;38.47;19.37;;;-0.80;99.90;;;;;;4984172;28;20179;-57
2024/01/17 05:59:44;;;;;;;40.03;20.87;;;-0.80;99.90;;;;;;4985550;28;20207;-58
2024/01/17 06:02:09;;;;;;;41.47;19.60;;;-0.70;99.90;;;;;;4985945;28;20181;-57
2024/01/17 06:04:35;;;;;;;42.80;20.40;;;-0.70;99.90;;;;;;4987629;28;20602;-57
2024/01/17 06:07:01;;;;;;;43.53;20.70;;;-0.70;99.90;;;;;;4985924;28;20238;-58
2024/01/17 06:09:26;;;;;;;39.53;19.40;;;-0.60;99.90;;;;;;4983729;28;20681;-59
2024/01/17 06:11:53;;;;;;;48.13;22.00;;;-0.60;99.90;;;;;;4984964;28;20195;-59
2024/01/17 06:14:18;;;;;;;43.30;21.80;;;-0.50;99.90;;;;;;4979987;28;20273;-57
2024/01/17 06:16:44;;;;;;;42.87;21.57;;;-0.50;99.90;;;;;;4985598;28;20562;-59
2024/01/17 06:19:10;;;;;;;44.30;22.30;;;-0.50;99.90;;;;;;4982458;28;20273;-58
2024/01/17 06:21:36;;;;;;;46.30;21.67;;;-0.50;99.90;;;;;;4982340;28;20414;-60
2024/01/17 06:24:02;;;;;;;45.97;23.80;;;-0.50;99.90;;;;;;4983438;28;20821;-58
2024/01/17 06:26:27;;;;;;;44.93;21.97;;;-0.50;99.90;;;;;;4984445;28;20373;-59
2024/01/17 06:28:53;;;;;;;47.93;21.53;;;-0.50;99.90;;;;;;4979417;28;20206;-59
2024/01/17 06:31:22;;;;;;;46.37;21.93;;;-0.50;99.90;;;;;;4987113;28;20176;-58
2024/01/17 06:33:48;;;;;;;48.13;22.23;;;-0.40;99.90;;;;;;4986289;28;20215;-59
2024/01/17 06:36:14;;;;;;;49.30;22.47;;;-0.40;99.90;;;;;;4977668;28;20528;-59
2024/01/17 06:38:40;;;;;;;42.53;22.30;;;-0.40;99.90;;;;;;4987481;28;20513;-59
2024/01/17 06:41:05;;;;;;;40.67;21.90;;;-0.40;99.90;;;;;;4982898;28;20197;-57
2024/01/17 06:43:31;;;;;;;50.03;24.77;;;-0.40;99.90;;;;;;4977431;28;20189;-58
2024/01/17 06:45:56;;;;;;;45.73;21.93;;;-0.40;99.90;;;;;;4982722;28;20322;-59
2024/01/17 06:48:22;;;;;;;37.97;20.90;;;-0.30;99.90;;;;;;4981695;28;20745;-58
2024/01/17 06:50:47;;;;;;;42.33;19.53;;;-0.30;99.90;;;;;;4984551;28;20328;-57
2024/01/17 06:53:15;;;;;;;38.20;18.67;;;-0.30;99.90;;;;;;4985131;28;20184;-57
2024/01/17 06:55:41;;;;;;;43.30;20.40;;;-0.20;99.90;;;;;;4985012;28;20195;-57
2024/01/17 06:58:07;;;;;;;45.13;21.20;;;-0.20;99.90;;;;;;4981861;28;20439;-58
2024/01/17 07:00:32;;;;;;;42.07;21.30;;;-0.20;99.90;;;;;;4984226;28;20253;-57
2024/01/17 07:02:58;;;;;;;43.97;22.57;;;-0.20;99.90;;;;;;4986185;28;20474;-58
2024/01/17 07:05:23;;;;;;;38.83;21.57;;;-0.20;99.90;;;;;;4986005;28;20198;-58
2024/01/17 07:07:49;;;;;;;42.57;20.67;;;-0.20;99.90;;;;;;4985279;28;20670;-58
2024/01/17 07:10:15;;;;;;;41.83;20.77;;;-0.20;99.90;;;;;;4980723;28;20252;-58
2024/01/17 07:12:40;;;;;;;47.23;22.70;;;-0.20;99.90;;;;;;4989265;28;20176;-58
2024/01/17 07:15:06;;;;;;;46.67;23.67;;;-0.20;99.90;;;;;;4990656;28;20693;-58
2024/01/17 07:17:31;;;;;;;44.97;21.70;;;-0.20;99.90;;;;;;4982876;28;20183;-57
2024/01/17 07:19:57;;;;;;;44.80;22.50;;;-0.20;99.90;;;;;;4985428;28;20211;-58
2024/01/17 07:22:22;;;;;;;44.67;22.10;;;-0.10;99.90;;;;;;4985168;28;20183;-58
2024/01/17 07:24:48;;;;;;;38.90;20.20;;;-0.10;99.90;;;;;;4985854;28;20187;-58
2024/01/17 07:27:14;;;;;;;38.50;18.77;;;-0.10;99.90;;;;;;4980166;28;20700;-57
2024/01/17 07:29:39;;;;;;;40.73;20.13;;;-0.10;99.90;;;;;;4983717;28;20287;-58
2024/01/17 07:32:05;;;;;;;42.37;20.30;;;-0.10;99.90;;;;;;4984564;28;20254;-57
2024/01/17 07:34:30;;;;;;;33.87;17.23;;;0.00;99.90;;;;;;4986199;28;20188;-58
2024/01/17 07:36:56;;;;;;;36.43;16.23;;;0.00;99.90;;;;;;4985450;28;20359;-58
2024/01/17 07:39:22;;;;;;;39.10;18.43;;;0.00;99.90;;;;;;4981659;28;20218;-57
2024/01/17 07:41:48;;;;;;;33.77;15.80;;;0.10;99.90;;;;;;4985476;28;20203;-57
2024/01/17 07:44:14;;;;;;;34.10;17.43;;;0.10;99.90;;;;;;4985123;28;20183;-58
2024/01/17 07:46:40;;;;;;;29.90;16.13;;;0.10;99.90;;;;;;4982149;28;20235;-59
2024/01/17 07:49:06;;;;;;;25.80;12.70;;;0.10;99.90;;;;;;4979913;28;20946;-57
2024/01/17 07:51:31;;;;;;;20.60;11.63;;;0.20;99.90;;;;;;4988511;28;20415;-58
2024/01/17 07:53:57;;;;;;;16.73;9.83;;;0.20;99.90;;;;;;4985555;28;20188;-58
2024/01/17 07:56:23;;;;;;;15.83;9.60;;;0.20;99.90;;;;;;4982271;28;20184;-58
2024/01/17 07:58:50;;;;;;;17.17;10.20;;;0.20;99.90;;;;;;4986930;28;20590;-58
2024/01/17 08:01:16;;;;;;;20.10;9.63;;;0.30;99.90;;;;;;4986995;28;20442;-59
2024/01/17 08:03:41;;;;;;;16.03;9.70;;;0.30;99.90;;;;;;4982194;28;20439;-59
2024/01/17 08:06:07;;;;;;;18.10;9.00;;;0.30;99.90;;;;;;4980164;28;20487;-59
2024/01/17 08:08:33;;;;;;;19.50;10.43;;;0.30;99.90;;;;;;4982387;28;20569;-57
2024/01/17 08:10:58;;;;;;;15.90;9.10;;;0.30;99.90;;;;;;4979451;28;20238;-59
2024/01/17 08:13:24;;;;;;;17.23;10.33;;;0.30;99.90;;;;;;4981406;28;20195;-59
2024/01/17 08:15:50;;;;;;;16.93;9.13;;;0.30;99.90;;;;;;4984414;28;20176;-59
2024/01/17 08:18:16;;;;;;;17.13;9.57;;;0.40;99.90;;;;;;4978928;28;20211;-58
2024/01/17 08:20:43;;;;;;;19.50;11.03;;;0.40;99.90;;;;;;4986358;28;20462;-58
2024/01/17 08:23:08;;;;;;;23.87;12.70;;;0.40;99.90;;;;;;4989026;28;20414;-59
2024/01/17 08:25:34;;;;;;;21.90;13.03;;;0.40;99.90;;;;;;4985062;28;20435;-58
2024/01/17 08:27:59;;;;;;;30.20;17.73;;;0.40;99.90;;;;;;4984127;28;20771;-59
2024/01/17 08:30:26;;;;;;;27.40;14.10;;;0.40;99.90;;;;;;4986852;28;20183;-58
2024/01/17 08:32:53;;;;;;;23.27;12.57;;;0.40;99.90;;;;;;4983580;28;20184;-59
2024/01/17 08:35:19;;;;;;;25.13;13.20;;;0.50;99.90;;;;;;4983133;28;20793;-56
2024/01/17 08:37:45;;;;;;;21.00;11.73;;;0.50;99.90;;;;;;4982253;28;20447;-58
2024/01/17 08:40:11;;;;;;;24.90;12.10;;;0.50;99.90;;;;;;4985502;28;20469;-57
2024/01/17 08:42:38;;;;;;;31.77;16.80;;;0.50;99.90;;;;;;4977966;28;20517;-59
2024/01/17 08:45:05;;;;;;;40.57;17.17;;;0.50;99.90;;;;;;4981343;28;20976;-58
2024/01/17 08:47:31;;;;;;;32.93;17.07;;;0.50;99.90;;;;;;4982509;28;21040;-58
2024/01/17 08:50:00;;;;;;;29.03;14.83;;;0.50;99.90;;;;;;4983907;28;20456;-60
2024/01/17 08:52:26;;;;;;;33.73;16.67;;;0.50;99.90;;;;;;4985614;28;20937;-58
2024/01/17 08:54:54;;;;;;;26.97;15.03;;;0.60;99.90;;;;;;4985969;28;20785;-58
2024/01/17 08:57:20;;;;;;;22.67;14.40;;;0.60;99.90;;;;;;4980039;28;20434;-57
2024/01/17 08:59:45;;;;;;;24.83;14.50;;;0.60;99.90;;;;;;4988356;28;20819;-58
2024/01/17 09:02:11;;;;;;;27.40;15.20;;;0.60;99.90;;;;;;4986324;28;20674;-58
2024/01/17 09:04:36;;;;;;;34.33;15.30;;;0.60;99.90;;;;;;4978691;28;20213;-58
2024/01/17 09:07:02;;;;;;;24.90;14.20;;;0.60;99.90;;;;;;4985856;28;20205;-58
2024/01/17 09:09:28;;;;;;;23.27;13.70;;;0.60;99.90;;;;;;4988200;28;20196;-57
2024/01/17 09:11:53;;;;;;;25.27;13.40;;;0.60;99.90;;;;;;4985931;28;20188;-58
2024/01/17 09:14:21;;;;;;;25.77;14.10;;;0.60;99.90;;;;;;4987397;28;20639;-57
2024/01/17 09:16:51;;;;;;;27.10;14.57;;;0.60;99.90;;;;;;4985782;28;20204;-58
2024/01/17 09:19:18;;;;;;;30.87;15.07;;;0.60;99.90;;;;;;4978720;28;20459;-58
2024/01/17 09:21:43;;;;;;;22.10;12.67;;;0.60;99.90;;;;;;4980362;28;20443;-58
2024/01/17 09:24:09;;;;;;;20.43;10.80;;;0.60;99.90;;;;;;4984833;28;20498;-58
2024/01/17 09:26:34;;;;;;;22.50;10.87;;;0.60;99.90;;;;;;4986010;28;20702;-57
2024/01/17 09:29:00;;;;;;;24.20;11.80;;;0.60;99.90;;;;;;4986611;28;20203;-58
2024/01/17 09:31:26;;;;;;;19.57;10.23;;;0.70;99.90;;;;;;4986215;28;20258;-58
2024/01/17 09:33:52;;;;;;;14.17;7.90;;;0.70;99.90;;;;;;4985797;28;20230;-59
2024/01/17 09:36:17;;;;;;;13.73;7.90;;;0.70;99.90;;;;;;4975964;28;20278;-54
2024/01/17 09:38:43;;;;;;;16.90;9.23;;;0.70;99.90;;;;;;4987148;28;20454;-58
2024/01/17 09:41:09;;;;;;;19.57;9.30;;;0.70;99.90;;;;;;4983267;28;20599;-59
2024/01/17 09:43:35;;;;;;;15.43;9.00;;;0.70;99.90;;;;;;4984807;28;20206;-57
2024/01/17 09:46:02;;;;;;;21.80;10.53;;;0.80;99.90;;;;;;4982694;28;20431;-56
2024/01/17 09:48:28;;;;;;;14.43;8.23;;;0.70;99.90;;;;;;4986310;28;20268;-58
2024/01/17 09:50:55;;;;;;;16.10;8.23;;;0.80;99.90;;;;;;4980281;28;20450;-58
2024/01/17 09:53:28;;;;;;;14.70;8.10;;;0.80;99.90;;;;;;4985590;28;20419;-58
2024/01/17 09:55:57;;;;;;;15.43;8.67;;;0.80;99.90;;;;;;4985899;28;20448;-58
2024/01/17 09:58:24;;;;;;;14.90;8.00;;;0.80;99.90;;;;;;4983536;28;20448;-58
2024/01/17 10:00:51;;;;;;;16.53;7.77;;;0.80;99.90;;;;;;4987124;28;21001;-58
2024/01/17 10:03:20;;;;;;;12.10;7.17;;;0.80;99.90;;;;;;4987062;28;20423;-57
2024/01/17 10:05:50;;;;;;;10.80;6.60;;;0.80;99.90;;;;;;4983113;28;20443;-58
2024/01/17 10:08:18;;;;;;;14.40;8.07;;;0.80;99.90;;;;;;4984312;28;20466;-57
2024/01/17 10:10:44;;;;;;;11.70;7.40;;;0.80;99.90;;;;;;4985133;28;20419;-57
2024/01/17 10:13:11;;;;;;;14.00;7.40;;;0.90;99.90;;;;;;4983374;28;20449;-57
2024/01/17 10:15:45;;;;;;;13.83;7.20;;;0.90;99.90;;;;;;4984060;28;20216;-58
2024/01/17 10:18:12;;;;;;;9.13;5.90;;;0.90;99.90;;;;;;4981281;28;20852;-59
2024/01/17 10:20:38;;;;;;;9.33;5.73;;;0.90;99.90;;;;;;4988243;28;20601;-57
2024/01/17 10:23:07;;;;;;;10.30;6.17;;;0.90;99.90;;;;;;4989115;28;20490;-57
2024/01/17 10:25:42;;;;;;;11.03;5.73;;;1.00;99.90;;;;;;4992404;28;20446;-58
2024/01/17 10:28:08;;;;;;;8.53;5.50;;;1.00;99.90;;;;;;4989706;28;20563;-58
2024/01/17 10:30:36;;;;;;;12.83;6.03;;;1.00;99.90;;;;;;4992643;28;20426;-58
2024/01/17 10:33:02;;;;;;;8.40;5.53;;;1.00;99.90;;;;;;4990642;28;20434;-58
2024/01/17 10:35:28;;;;;;;11.37;5.90;;;1.10;99.90;;;;;;4988189;28;20446;-57
2024/01/17 10:37:54;;;;;;;16.40;6.50;;;1.10;99.90;;;;;;4985177;28;20841;-57
2024/01/17 10:40:21;;;;;;;9.50;5.87;;;1.10;99.90;;;;;;4987756;28;20427;-58
2024/01/17 10:42:46;;;;;;;10.43;6.10;;;1.10;99.90;;;;;;4990593;28;20438;-58
2024/01/17 10:45:22;;;;;;;15.37;6.90;;;1.20;99.90;;;;;;4983122;28;20443;-58
2024/01/17 10:47:48;;;;;;;10.50;6.90;;;1.20;99.90;;;;;;4982519;28;20223;-57
2024/01/17 10:50:16;;;;;;;11.10;6.80;;;1.20;99.90;;;;;;4983809;28;20440;-57
2024/01/17 10:52:43;;;;;;;10.00;7.00;;;1.20;99.90;;;;;;4988322;28;20531;-58
2024/01/17 10:55:10;;;;;;;10.00;6.90;;;1.30;99.90;;;;;;4990748;28;20429;-58
2024/01/17 10:57:44;;;;;;;13.43;7.07;;;1.30;99.90;;;;;;4987407;28;20440;-57
2024/01/17 11:00:17;;;;;;;12.70;7.50;;;1.30;99.90;;;;;;4988941;28;20802;-57
2024/01/17 11:02:44;;;;;;;8.93;6.00;;;1.30;99.90;;;;;;4990226;28;20419;-59
2024/01/17 11:05:11;;;;;;;9.40;6.13;;;1.40;99.90;;;;;;4989685;28;20766;-58
2024/01/17 11:07:40;;;;;;;11.03;6.77;;;1.40;99.90;;;;;;4983538;28;20460;-57
2024/01/17 11:10:08;;;;;;;13.07;7.27;;;1.40;99.90;;;;;;4983671;28;20990;-57
2024/01/17 11:12:36;;;;;;;15.77;7.40;;;1.40;99.90;;;;;;4982243;28;20514;-58
2024/01/17 11:15:06;;;;;;;10.30;6.50;;;1.50;99.90;;;;;;4984986;28;20419;-59
2024/01/17 11:17:36;;;;;;;15.00;6.97;;;1.50;99.90;;;;;;4982981;28;20612;-57
2024/01/17 11:20:08;;;;;;;10.13;5.77;;;1.50;99.90;;;;;;4984411;28;20807;-57
2024/01/17 11:22:36;;;;;;;6.97;5.00;;;1.50;99.90;;;;;;4988712;28;20452;-57
2024/01/17 11:25:16;;;;;;;13.00;4.80;;;1.50;99.90;;;;;;4990041;28;20510;-57
2024/01/17 11:27:54;;;;;;;7.80;5.20;;;1.50;99.90;;;;;;4988658;28;20533;-55
2024/01/17 11:30:32;;;;;;;8.63;5.80;;;1.60;99.90;;;;;;4982835;28;20432;-59
2024/01/17 11:33:10;;;;;;;6.97;5.10;;;1.60;99.90;;;;;;4984348;28;20458;-53
2024/01/17 11:35:42;;;;;;;12.13;6.77;;;1.60;99.90;;;;;;4983247;28;20796;-54
2024/01/17 11:38:17;;;;;;;11.40;6.27;;;1.60;99.90;;;;;;4988086;28;20547;-56
2024/01/17 11:40:42;;;;;;;10.53;5.77;;;1.60;99.90;;;;;;4985844;28;20477;-55
2024/01/17 11:43:09;;;;;;;8.50;5.53;;;1.60;99.90;;;;;;4987707;28;20454;-56
2024/01/17 11:45:36;;;;;;;8.23;5.77;;;1.60;99.90;;;;;;4985366;28;20175;-58
2024/01/17 11:48:33;;;;;;;6.93;5.07;;;1.60;99.90;;;;;;4989107;28;20556;-56
2024/01/17 11:51:06;;;;;;;13.00;6.17;;;1.60;99.90;;;;;;4966069;28;20428;-58
2024/01/17 11:53:34;;;;;;;12.87;6.67;;;1.60;99.90;;;;;;4983429;28;20922;-58
2024/01/17 11:56:06;;;;;;;8.57;5.47;;;1.60;99.90;;;;;;4987610;28;20471;-59
2024/01/17 11:58:49;;;;;;;11.67;7.00;;;1.60;99.90;;;;;;4985680;28;20439;-58
2024/01/17 12:01:23;;;;;;;12.80;8.20;;;1.60;99.90;;;;;;4985887;28;20435;-56
2024/01/17 12:03:51;;;;;;;12.30;7.10;;;1.60;99.90;;;;;;4986310;28;20466;-57
2024/01/17 12:06:18;;;;;;;12.87;6.90;;;1.60;99.90;;;;;;4984244;28;20411;-57
2024/01/17 12:08:44;;;;;;;11.10;7.17;;;1.70;99.90;;;;;;4982372;28;20437;-57
2024/01/17 12:11:10;;;;;;;9.33;6.70;;;1.70;99.90;;;;;;4985618;28;20440;-58
2024/01/17 12:13:37;;;;;;;8.03;5.77;;;1.70;99.90;;;;;;4985513;28;20551;-56
2024/01/17 12:16:04;;;;;;;6.90;5.50;;;1.80;99.90;;;;;;4985735;28;20513;-56
2024/01/17 12:18:31;;;;;;;7.40;5.60;;;1.80;99.90;;;;;;4987930;28;20484;-56
2024/01/17 12:21:01;;;;;;;10.00;6.83;;;1.80;99.90;;;;;;4982862;28;20651;-56
2024/01/17 12:23:30;;;;;;;11.20;6.60;;;1.90;99.90;;;;;;4986023;28;20419;-54
2024/01/17 12:25:55;;;;;;;8.93;5.70;;;1.90;99.90;;;;;;4985098;28;21120;-54
2024/01/17 12:28:22;;;;;;;11.40;6.23;;;2.00;99.90;;;;;;4985598;28;20460;-52
2024/01/17 12:31:06;;;;;;;10.57;6.63;;;2.00;99.90;;;;;;4988182;28;20671;-52